createdAt,value
2023-04-09T00:01:22.921Z,11.48
2023-04-09T00:04:26.166Z,14.77
2023-04-09T00:07:29.332Z,14.77
2023-04-09T00:10:32.502Z,14.35
2023-04-09T00:13:39.679Z,15.45
2023-04-09T00:16:43.293Z,15.63
2023-04-09T00:19:46.515Z,14.52
2023-04-09T00:22:50.481Z,18.05
2023-04-09T00:25:53.378Z,13.35
2023-04-09T00:28:56.587Z,15.18
2023-04-09T00:31:59.507Z,16.17
2023-04-09T00:35:02.692Z,17.77
2023-04-09T00:38:06.315Z,20.40
2023-04-09T00:41:09.573Z,18.92
2023-04-09T00:44:13.098Z,17.90
2023-04-09T00:47:16.401Z,15.35
2023-04-09T00:50:19.624Z,21.00
2023-04-09T00:53:23.028Z,18.85
2023-04-09T00:56:27.351Z,18.12
2023-04-09T00:59:30.633Z,15.27
2023-04-09T01:02:34.144Z,14.23
2023-04-09T01:05:44.211Z,18.77
2023-04-09T01:09:02.280Z,17.45
2023-04-09T01:12:32.795Z,18.12
2023-04-09T01:15:40.086Z,17.00
2023-04-09T01:18:51.636Z,14.43
2023-04-09T01:21:56.648Z,12.25
2023-04-09T01:28:21.913Z,11.90
2023-04-09T01:31:29.040Z,14.25
2023-04-09T01:34:32.805Z,13.18
2023-04-09T01:37:36.367Z,13.05
2023-04-09T01:40:39.428Z,13.07
2023-04-09T01:43:43.486Z,15.75
2023-04-09T01:46:50.473Z,12.88
2023-04-09T01:49:54.396Z,14.90
2023-04-09T01:52:57.349Z,13.07
2023-04-09T01:56:01.533Z,15.27
2023-04-09T01:59:04.777Z,16.33
2023-04-09T02:02:23.483Z,21.15
2023-04-09T02:05:29.597Z,20.52
2023-04-09T02:08:33.771Z,16.45
2023-04-09T02:11:42.150Z,17.57
2023-04-09T02:14:51.636Z,15.38
2023-04-09T02:17:55.903Z,17.25
2023-04-09T02:20:59.802Z,16.35
2023-04-09T02:24:03.115Z,21.35
2023-04-09T02:27:06.399Z,20.45
2023-04-09T02:30:09.915Z,23.60
2023-04-09T02:33:12.912Z,24.60
2023-04-09T02:36:16.732Z,24.83
2023-04-09T02:39:19.654Z,24.55
2023-04-09T02:42:23.016Z,18.02
2023-04-09T02:45:26.100Z,19.87
2023-04-09T02:48:30.165Z,16.10
2023-04-09T02:51:36.062Z,15.35
2023-04-09T02:54:40.128Z,16.35
2023-04-09T02:57:43.205Z,15.65
2023-04-09T03:00:46.596Z,14.87
2023-04-09T03:03:50.284Z,12.80
2023-04-09T03:06:54.244Z,15.20
2023-04-09T03:09:57.288Z,14.55
2023-04-09T03:13:00.573Z,16.52
2023-04-09T03:16:03.651Z,13.62
2023-04-09T03:19:06.890Z,13.50
2023-04-09T03:22:12.104Z,13.05
2023-04-09T03:25:15.569Z,16.23
2023-04-09T03:28:18.618Z,15.90
2023-04-09T03:31:22.178Z,16.87
2023-04-09T03:34:25.088Z,17.40
2023-04-09T03:37:29.305Z,17.27
2023-04-09T03:40:33.700Z,20.20
2023-04-09T03:43:36.951Z,17.90
2023-04-09T03:46:40.466Z,16.58
2023-04-09T03:49:44.464Z,17.65
2023-04-09T03:52:48.221Z,17.85
2023-04-09T03:55:51.234Z,18.08
2023-04-09T03:58:55.031Z,17.98
2023-04-09T04:01:59.468Z,23.33
2023-04-09T04:05:03.925Z,18.85
2023-04-09T04:08:07.452Z,21.35
2023-04-09T04:11:10.773Z,20.00
2023-04-09T04:14:14.407Z,19.65
2023-04-09T04:17:18.497Z,20.70
2023-04-09T04:20:22.068Z,20.10
2023-04-09T04:23:26.415Z,18.42
2023-04-09T04:26:29.540Z,20.67
2023-04-09T04:29:33.553Z,20.12
2023-04-09T04:32:36.812Z,19.40
2023-04-09T04:35:41.233Z,19.55
2023-04-09T04:38:44.600Z,19.27
2023-04-09T04:41:49.532Z,21.35
2023-04-09T04:44:53.478Z,19.27
2023-04-09T04:48:01.121Z,18.80
2023-04-09T04:51:04.128Z,23.27
2023-04-09T04:54:08.074Z,21.90
2023-04-09T04:57:11.167Z,21.98
2023-04-09T05:00:15.019Z,20.85
2023-04-09T05:03:18.172Z,19.83
2023-04-09T05:06:22.026Z,18.10
2023-04-09T05:09:25.427Z,23.02
2023-04-09T05:12:32.235Z,24.83
2023-04-09T05:15:39.509Z,23.83
2023-04-09T05:18:43.071Z,25.60
2023-04-09T05:21:47.213Z,23.35
2023-04-09T05:24:54.492Z,22.65
2023-04-09T05:27:58.114Z,20.10
2023-04-09T05:31:02.035Z,20.92
2023-04-09T05:37:10.916Z,23.40
2023-04-09T05:40:15.905Z,25.00
2023-04-09T05:43:19.468Z,27.15
2023-04-09T05:46:27.063Z,25.48
2023-04-09T05:49:30.974Z,26.95
2023-04-09T05:52:34.661Z,24.60
2023-04-09T05:55:38.055Z,22.83
2023-04-09T05:58:41.166Z,21.77
2023-04-09T06:01:44.564Z,25.05
2023-04-09T06:04:47.879Z,26.20
2023-04-09T06:07:51.131Z,27.20
2023-04-09T06:10:54.260Z,26.25
2023-04-09T06:13:57.345Z,30.75
2023-04-09T06:17:00.693Z,28.60
2023-04-09T06:20:03.892Z,28.00
2023-04-09T06:23:07.164Z,32.75
2023-04-09T06:26:10.111Z,32.90
2023-04-09T06:29:13.340Z,33.15
2023-04-09T06:32:16.891Z,34.08
2023-04-09T06:35:20.051Z,32.22
2023-04-09T06:38:22.906Z,32.33
2023-04-09T06:41:26.779Z,32.05
2023-04-09T06:44:30.360Z,29.33
2023-04-09T06:47:33.351Z,31.80
2023-04-09T06:50:35.985Z,35.58
2023-04-09T06:53:39.483Z,28.55
2023-04-09T06:56:42.211Z,24.42
2023-04-09T06:59:45.643Z,26.73
2023-04-09T07:02:49.136Z,26.52
2023-04-09T07:05:52.452Z,24.63
2023-04-09T07:08:55.902Z,27.25
2023-04-09T07:11:59.260Z,28.25
2023-04-09T07:15:03.874Z,25.90
2023-04-09T07:18:07.348Z,24.30
2023-04-09T07:21:10.476Z,20.98
2023-04-09T07:24:13.595Z,19.10
2023-04-09T07:27:16.520Z,26.30
2023-04-09T07:30:19.926Z,19.92
2023-04-09T07:33:22.804Z,21.87
2023-04-09T07:36:26.739Z,24.85
2023-04-09T07:39:29.636Z,24.45
2023-04-09T07:42:33.293Z,18.58
2023-04-09T07:45:36.200Z,20.62
2023-04-09T07:48:40.069Z,21.67
2023-04-09T07:51:43.666Z,17.70
2023-04-09T07:54:47.060Z,15.10
2023-04-09T07:57:50.332Z,17.75
2023-04-09T08:00:53.530Z,15.82
2023-04-09T08:03:57.434Z,14.73
2023-04-09T08:07:00.605Z,16.02
2023-04-09T08:10:04.400Z,14.50
2023-04-09T08:13:08.048Z,14.13
2023-04-09T08:16:12.347Z,12.90
2023-04-09T08:19:17.211Z,12.18
2023-04-09T08:22:20.568Z,10.20
2023-04-09T08:25:23.669Z,10.20
2023-04-09T08:28:26.921Z,9.88
2023-04-09T08:31:29.946Z,9.65
2023-04-09T08:34:33.575Z,10.10
2023-04-09T08:37:36.363Z,9.00
2023-04-09T08:40:40.506Z,9.07
2023-04-09T08:43:56.831Z,8.85
2023-04-09T08:47:01.850Z,8.38
2023-04-09T08:50:05.051Z,7.90
2023-04-09T08:53:08.857Z,8.00
2023-04-09T08:56:14.030Z,6.10
2023-04-09T08:59:21.347Z,7.43
2023-04-09T09:02:24.464Z,8.35
2023-04-09T09:05:41.201Z,7.00
2023-04-09T09:08:44.228Z,7.35
2023-04-09T09:11:50.328Z,8.05
2023-04-09T09:14:53.293Z,8.18
2023-04-09T09:17:58.798Z,6.82
2023-04-09T09:24:18.468Z,7.47
2023-04-09T09:27:37.318Z,9.45
2023-04-09T09:30:41.853Z,7.50
2023-04-09T09:33:45.030Z,8.35
2023-04-09T09:36:48.750Z,7.30
2023-04-09T09:39:51.428Z,8.07
2023-04-09T09:42:56.066Z,7.82
2023-04-09T09:45:59.069Z,7.63
2023-04-09T09:49:02.262Z,6.65
2023-04-09T09:52:09.818Z,6.87
2023-04-09T09:55:16.811Z,7.15
2023-04-09T09:58:41.481Z,6.40
2023-04-09T10:01:46.754Z,5.70
2023-04-09T10:04:52.971Z,6.95
2023-04-09T10:07:58.097Z,6.18
2023-04-09T10:11:01.946Z,5.07
2023-04-09T10:14:08.037Z,4.97
2023-04-09T10:17:11.912Z,4.55
2023-04-09T10:20:24.695Z,5.85
2023-04-09T10:23:32.945Z,5.37
2023-04-09T10:26:37.549Z,4.30
2023-04-09T10:29:48.584Z,6.70
2023-04-09T10:32:53.374Z,5.85
2023-04-09T10:36:02.320Z,7.00
2023-04-09T10:39:15.296Z,5.35
2023-04-09T10:42:43.345Z,5.87
2023-04-09T10:45:53.654Z,5.97
2023-04-09T10:49:18.312Z,5.57
2023-04-09T10:52:30.330Z,4.90
2023-04-09T10:55:41.670Z,5.12
2023-04-09T10:58:44.623Z,4.97
2023-04-09T11:01:54.806Z,6.32
2023-04-09T11:05:20.971Z,5.87
2023-04-09T11:08:24.180Z,7.25
2023-04-09T11:11:28.612Z,6.07
2023-04-09T11:14:33.994Z,5.15
2023-04-09T11:17:37.152Z,6.32
2023-04-09T11:20:41.397Z,5.45
2023-04-09T11:23:52.288Z,6.68
2023-04-09T11:26:56.985Z,5.95
2023-04-09T11:29:59.903Z,7.27
2023-04-09T11:33:04.175Z,5.72
2023-04-09T11:36:09.114Z,5.22
2023-04-09T11:39:12.438Z,5.15
2023-04-09T11:42:16.149Z,5.18
2023-04-09T11:45:21.890Z,7.03
2023-04-09T11:48:25.071Z,5.32
2023-04-09T11:51:28.789Z,7.80
2023-04-09T11:54:35.234Z,7.30
2023-04-09T11:57:43.963Z,6.10
2023-04-09T12:00:46.942Z,5.25
2023-04-09T12:03:56.682Z,5.37
2023-04-09T12:06:59.842Z,6.12
2023-04-09T12:10:10.582Z,5.20
2023-04-09T12:13:13.961Z,6.65
2023-04-09T12:16:21.175Z,5.95
2023-04-09T12:19:25.957Z,7.65
2023-04-09T12:25:32.693Z,5.68
2023-04-09T12:28:35.965Z,5.72
2023-04-09T12:31:38.961Z,6.70
2023-04-09T12:34:42.131Z,5.87
2023-04-09T12:37:44.959Z,8.15
2023-04-09T12:40:48.126Z,6.68
2023-04-09T12:43:51.466Z,5.93
2023-04-09T12:46:55.445Z,5.97
2023-04-09T12:49:58.137Z,6.10
2023-04-09T12:53:03.714Z,6.03
2023-04-09T12:56:14.158Z,5.25
2023-04-09T12:59:19.365Z,5.43
2023-04-09T13:02:22.460Z,5.53
2023-04-09T13:05:26.079Z,7.28
2023-04-09T13:08:29.023Z,5.12
2023-04-09T13:11:33.066Z,5.13
2023-04-09T13:14:36.626Z,5.87
2023-04-09T13:17:39.857Z,7.07
2023-04-09T13:20:42.819Z,6.53
2023-04-09T13:23:45.961Z,5.60
2023-04-09T13:26:49.082Z,7.60
2023-04-09T13:29:52.365Z,5.25
2023-04-09T13:32:55.544Z,5.22
2023-04-09T13:35:58.726Z,6.47
2023-04-09T13:39:05.631Z,5.62
2023-04-09T13:42:13.557Z,6.18
2023-04-09T13:45:18.042Z,5.53
2023-04-09T13:48:21.921Z,6.53
2023-04-09T13:51:26.464Z,6.68
2023-04-09T13:57:32.300Z,5.45
2023-04-09T14:00:36.677Z,5.55
2023-04-09T14:03:41.740Z,5.80
2023-04-09T14:06:44.768Z,4.62
2023-04-09T14:09:50.871Z,5.62
2023-04-09T14:12:54.387Z,6.43
2023-04-09T14:16:00.321Z,4.93
2023-04-09T14:19:03.482Z,5.72
2023-04-09T14:22:08.975Z,4.90
2023-04-09T14:25:12.135Z,4.50
2023-04-09T14:28:15.313Z,4.93
2023-04-09T14:31:21.556Z,5.15
2023-04-09T14:34:24.915Z,5.20
2023-04-09T14:37:27.991Z,6.40
2023-04-09T14:40:32.160Z,6.43
2023-04-09T14:43:35.055Z,5.72
2023-04-09T14:46:38.435Z,4.57
2023-04-09T14:49:41.407Z,6.50
2023-04-09T14:52:48.401Z,6.12
2023-04-09T14:55:51.440Z,4.65
2023-04-09T14:58:54.820Z,5.40
2023-04-09T15:01:58.300Z,5.70
2023-04-09T15:05:03.856Z,9.05
2023-04-09T15:08:07.342Z,5.20
2023-04-09T15:11:18.135Z,6.78
2023-04-09T15:14:21.407Z,6.10
2023-04-09T15:17:26.298Z,6.07
2023-04-09T15:20:29.167Z,7.35
2023-04-09T15:23:35.600Z,5.90
2023-04-09T15:26:38.672Z,7.03
2023-04-09T15:29:41.920Z,7.05
2023-04-09T15:32:48.281Z,6.45
2023-04-09T15:35:51.561Z,6.72
2023-04-09T15:38:54.798Z,7.05
2023-04-09T15:41:58.445Z,6.90
2023-04-09T15:45:01.341Z,7.72
2023-04-09T15:48:05.315Z,8.27
2023-04-09T15:51:09.325Z,7.95
2023-04-09T15:54:12.548Z,10.07
2023-04-09T15:57:15.737Z,9.88
2023-04-09T16:00:18.996Z,9.95
2023-04-09T16:03:22.314Z,9.80
2023-04-09T16:06:25.622Z,10.00
2023-04-09T16:09:28.935Z,11.45
2023-04-09T16:12:32.196Z,12.20
2023-04-09T16:15:36.130Z,10.48
2023-04-09T16:18:39.083Z,10.98
2023-04-09T16:21:44.784Z,9.75
2023-04-09T16:24:47.634Z,10.02
2023-04-09T16:27:55.002Z,10.63
2023-04-09T16:30:58.741Z,11.45
2023-04-09T16:34:03.696Z,8.18
2023-04-09T16:37:07.938Z,9.00
2023-04-09T16:40:11.357Z,9.43
2023-04-09T16:43:14.225Z,10.45
2023-04-09T16:46:18.229Z,12.37
2023-04-09T16:49:21.146Z,11.20
2023-04-09T16:52:24.553Z,8.65
2023-04-09T16:55:27.405Z,13.32
2023-04-09T16:58:30.771Z,11.73
2023-04-09T17:01:35.378Z,11.05
2023-04-09T17:04:38.665Z,13.18
2023-04-09T17:07:43.318Z,14.85
2023-04-09T17:10:46.535Z,13.88
2023-04-09T17:13:49.472Z,18.02
2023-04-09T17:16:53.929Z,16.08
2023-04-09T17:19:58.533Z,14.90
2023-04-09T17:23:01.904Z,15.23
2023-04-09T17:26:05.016Z,14.87
2023-04-09T17:29:08.213Z,14.05
2023-04-09T17:32:11.183Z,13.65
2023-04-09T17:35:14.356Z,14.82
2023-04-09T17:38:21.425Z,15.13
2023-04-09T17:41:25.084Z,17.05
2023-04-09T17:44:28.204Z,13.85
2023-04-09T17:47:31.462Z,15.63
2023-04-09T17:50:38.593Z,16.83
2023-04-09T17:53:41.832Z,15.38
2023-04-09T17:56:46.158Z,19.67
2023-04-09T17:59:49.439Z,21.48
2023-04-09T18:02:54.138Z,22.62
2023-04-09T18:06:00.773Z,21.10
2023-04-09T18:09:04.300Z,19.00
2023-04-09T18:12:07.543Z,22.60
2023-04-09T18:15:11.116Z,20.25
2023-04-09T18:18:14.403Z,18.37
2023-04-09T18:21:18.250Z,17.62
2023-04-09T18:24:21.556Z,17.00
2023-04-09T18:27:24.519Z,16.65
2023-04-09T18:30:27.723Z,16.23
2023-04-09T18:33:31.119Z,14.02
2023-04-09T18:36:34.360Z,15.40
2023-04-09T18:39:37.802Z,14.10
2023-04-09T18:42:40.997Z,15.38
2023-04-09T18:45:45.440Z,14.98
2023-04-09T18:48:50.671Z,15.70
2023-04-09T18:51:53.607Z,17.23
2023-04-09T18:54:58.263Z,17.10
2023-04-09T18:58:02.262Z,18.25
2023-04-09T19:01:13.231Z,17.12
2023-04-09T19:04:16.484Z,16.55
2023-04-09T19:07:22.592Z,19.03
2023-04-09T19:10:27.342Z,17.65
2023-04-09T19:13:32.707Z,22.83
2023-04-09T19:16:37.179Z,18.70
2023-04-09T19:19:40.493Z,18.55
2023-04-09T19:22:48.461Z,15.52
2023-04-09T19:25:53.614Z,16.67
2023-04-09T19:28:56.922Z,15.63
2023-04-09T19:32:00.629Z,15.90
2023-04-09T19:35:03.898Z,17.70
2023-04-09T19:38:08.063Z,21.35
2023-04-09T19:41:11.112Z,20.52
2023-04-09T19:44:14.257Z,22.85
2023-04-09T19:47:17.168Z,20.75
2023-04-09T19:50:20.579Z,20.77
2023-04-09T19:53:23.957Z,18.33
2023-04-09T19:56:27.235Z,19.85
2023-04-09T19:59:31.501Z,19.52
2023-04-09T20:02:35.422Z,21.27
2023-04-09T20:05:40.389Z,21.05
2023-04-09T20:08:43.411Z,19.90
2023-04-09T20:11:47.825Z,21.27
2023-04-09T20:14:51.129Z,19.87
2023-04-09T20:17:54.370Z,23.52
2023-04-09T20:20:57.346Z,17.50
2023-04-09T20:24:00.766Z,20.40
2023-04-09T20:27:04.065Z,18.40
2023-04-09T20:30:08.372Z,21.67
2023-04-09T20:33:11.791Z,22.25
2023-04-09T20:36:19.521Z,24.48
2023-04-09T20:39:25.153Z,23.52
2023-04-09T20:42:28.473Z,22.25
2023-04-09T20:45:31.479Z,19.00
2023-04-09T20:48:34.970Z,20.80
2023-04-09T20:51:38.057Z,20.25
2023-04-09T20:54:43.076Z,22.80
2023-04-09T20:57:46.128Z,19.15
2023-04-09T21:00:49.414Z,22.55
2023-04-09T21:03:53.661Z,21.27
2023-04-09T21:06:58.322Z,19.08
2023-04-09T21:10:01.920Z,21.37
2023-04-09T21:13:05.129Z,21.42
2023-04-09T21:16:09.411Z,18.20
2023-04-09T21:19:12.573Z,19.57
2023-04-09T21:22:15.735Z,20.15
2023-04-09T21:25:18.947Z,20.90
2023-04-09T21:28:21.802Z,20.65
2023-04-09T21:31:25.134Z,20.48
2023-04-09T21:34:28.043Z,20.45
2023-04-09T21:37:33.139Z,19.60
2023-04-09T21:40:37.339Z,19.87
2023-04-09T21:43:40.659Z,18.73
2023-04-09T21:46:44.933Z,18.10
2023-04-09T21:49:50.212Z,20.10
2023-04-09T21:52:53.214Z,20.35
2023-04-09T21:55:57.486Z,18.33
2023-04-09T21:59:01.397Z,17.62
2023-04-09T22:02:04.971Z,18.77
2023-04-09T22:05:08.801Z,17.65
2023-04-09T22:08:13.172Z,19.50
2023-04-09T22:11:16.690Z,19.73
2023-04-09T22:14:20.678Z,19.15
2023-04-09T22:17:23.938Z,20.90
2023-04-09T22:20:27.003Z,19.65
2023-04-09T22:23:30.189Z,19.42
2023-04-09T22:26:33.602Z,21.12
2023-04-09T22:29:37.228Z,21.37
2023-04-09T22:32:40.182Z,22.85
2023-04-09T22:35:44.053Z,23.62
2023-04-09T22:38:46.923Z,23.80
2023-04-09T22:41:51.088Z,21.70
2023-04-09T22:44:54.032Z,20.67
2023-04-09T22:47:57.765Z,23.95
2023-04-09T22:51:00.650Z,20.58
2023-04-09T22:54:04.003Z,21.42
2023-04-09T22:57:06.895Z,19.55
2023-04-09T23:00:10.619Z,20.08
2023-04-09T23:03:13.624Z,23.35
2023-04-09T23:06:19.738Z,21.12
2023-04-09T23:09:22.834Z,23.62
2023-04-09T23:12:26.501Z,19.15
2023-04-09T23:15:29.373Z,21.80
2023-04-09T23:18:33.143Z,18.42
2023-04-09T23:21:37.345Z,18.87
2023-04-09T23:24:40.538Z,20.67
2023-04-09T23:27:44.119Z,19.92
2023-04-09T23:30:47.277Z,19.40
2023-04-09T23:33:50.247Z,19.50
2023-04-09T23:36:53.468Z,18.12
2023-04-09T23:39:56.666Z,19.33
2023-04-09T23:42:59.920Z,18.67
2023-04-09T23:46:02.832Z,22.48
2023-04-09T23:49:06.018Z,23.08
2023-04-09T23:52:08.965Z,20.30
2023-04-09T23:55:12.441Z,21.23
2023-04-09T23:58:15.363Z,18.35
